sensor_id;sensor_type;location;lat;lon;timestamp;pressure;altitude;pressure_sealevel;temperature;humidity
5484;BME280;2764;48.794;8.326;2022-11-21T00:00:49;99188.34;;;6.04;100.00
5484;BME280;2764;48.794;8.326;2022-11-21T00:01:50;99184.00;;;6.04;100.00
5484;BME280;2764;48.794;8.326;2022-11-21T00:02:52;99164.97;;;6.04;100.00
5484;BME280;2764;48.794;8.326;2022-11-21T00:03:54;99183.84;;;6.09;100.00
5484;BME280;2764;48.794;8.326;2022-11-21T00:04:56;99177.63;;;6.13;100.00
5484;BME280;2764;48.794;8.326;2022-11-21T00:05:57;99170.00;;;6.08;100.00
5484;BME280;2764;48.794;8.326;2022-11-21T00:06:59;99182.25;;;6.05;100.00
5484;BME280;2764;48.794;8.326;2022-11-21T00:08:00;99183.84;;;6.09;100.00
5484;BME280;2764;48.794;8.326;2022-11-21T00:09:02;99170.78;;;6.10;100.00
5484;BME280;2764;48.794;8.326;2022-11-21T00:10:04;99166.53;;;6.09;100.00
5484;BME280;2764;48.794;8.326;2022-11-21T00:11:06;99175.16;;;6.10;100.00
5484;BME280;2764;48.794;8.326;2022-11-21T00:12:08;99159.53;;;6.11;100.00
5484;BME280;2764;48.794;8.326;2022-11-21T00:13:19;99150.88;;;6.11;100.00
5484;BME280;2764;48.794;8.326;2022-11-21T00:14:21;99143.19;;;6.08;100.00
5484;BME280;2764;48.794;8.326;2022-11-21T00:15:24;99150.78;;;6.14;100.00
5484;BME280;2764;48.794;8.326;2022-11-21T00:16:26;99151.66;;;6.13;100.00
5484;BME280;2764;48.794;8.326;2022-11-21T00:17:28;99151.66;;;6.13;100.00
5484;BME280;2764;48.794;8.326;2022-11-21T00:18:29;99132.53;;;6.17;100.00
5484;BME280;2764;48.794;8.326;2022-11-21T00:19:32;99132.38;;;6.20;100.00
5484;BME280;2764;48.794;8.326;2022-11-21T00:20:33;99131.50;;;6.21;100.00
5484;BME280;2764;48.794;8.326;2022-11-21T00:21:37;99142.78;;;6.20;100.00
5484;BME280;2764;48.794;8.326;2022-11-21T00:22:38;99128.78;;;6.24;100.00
5484;BME280;2764;48.794;8.326;2022-11-21T00:23:41;99119.25;;;6.24;100.00
5484;BME280;2764;48.794;8.326;2022-11-21T00:24:43;99139.06;;;6.27;100.00
5484;BME280;2764;48.794;8.326;2022-11-21T00:25:45;99130.22;;;6.32;100.00
5484;BME280;2764;48.794;8.326;2022-11-21T00:26:46;99128.84;;;6.46;100.00
5484;BME280;2764;48.794;8.326;2022-11-21T00:27:48;99138.84;;;6.56;100.00
5484;BME280;2764;48.794;8.326;2022-11-21T00:28:50;99145.72;;;6.57;100.00
5484;BME280;2764;48.794;8.326;2022-11-21T00:29:51;99141.56;;;6.53;100.00
5484;BME280;2764;48.794;8.326;2022-11-21T00:30:53;99133.97;;;6.47;100.00
5484;BME280;2764;48.794;8.326;2022-11-21T00:31:55;99140.88;;;6.48;100.00
5484;BME280;2764;48.794;8.326;2022-11-21T00:32:59;99142.75;;;6.45;100.00
5484;BME280;2764;48.794;8.326;2022-11-21T00:34:01;99160.81;;;6.48;100.00
5484;BME280;2764;48.794;8.326;2022-11-21T00:35:03;99150.47;;;6.46;100.00
5484;BME280;2764;48.794;8.326;2022-11-21T00:36:06;99163.38;;;6.49;100.00
5484;BME280;2764;48.794;8.326;2022-11-21T00:37:09;99168.41;;;6.54;100.00
5484;BME280;2764;48.794;8.326;2022-11-21T00:38:10;99167.81;;;6.46;100.00
5484;BME280;2764;48.794;8.326;2022-11-21T00:39:12;99163.53;;;6.45;100.00
5484;BME280;2764;48.794;8.326;2022-11-21T00:40:14;99168.72;;;6.45;100.00
5484;BME280;2764;48.794;8.326;2022-11-21T00:41:16;99191.34;;;6.41;100.00
5484;BME280;2764;48.794;8.326;2022-11-21T00:42:17;99193.06;;;6.42;100.00
5484;BME280;2764;48.794;8.326;2022-11-21T00:43:19;99181.84;;;6.40;100.00
5484;BME280;2764;48.794;8.326;2022-11-21T00:44:21;99183.00;;;6.33;100.00
5484;BME280;2764;48.794;8.326;2022-11-21T00:45:22;99170.19;;;6.28;100.00
5484;BME280;2764;48.794;8.326;2022-11-21T00:46:25;99170.22;;;6.27;100.00
5484;BME280;2764;48.794;8.326;2022-11-21T00:47:26;99158.25;;;6.23;100.00
5484;BME280;2764;48.794;8.326;2022-11-21T00:48:29;99163.69;;;6.15;100.00
5484;BME280;2764;48.794;8.326;2022-11-21T00:49:31;99159.53;;;6.11;100.00
5484;BME280;2764;48.794;8.326;2022-11-21T00:50:32;99171.66;;;6.11;100.00
5484;BME280;2764;48.794;8.326;2022-11-21T00:51:34;99182.09;;;6.09;100.00
5484;BME280;2764;48.794;8.326;2022-11-21T00:52:36;99167.56;;;6.04;100.00
5484;BME280;2764;48.794;8.326;2022-11-21T00:53:37;99169.38;;;6.02;100.00
5484;BME280;2764;48.794;8.326;2022-11-21T00:54:39;99164.97;;;6.04;100.00
5484;BME280;2764;48.794;8.326;2022-11-21T00:55:41;99152.75;;;6.07;100.00
5484;BME280;2764;48.794;8.326;2022-11-21T00:56:43;99147.56;;;6.07;100.00
5484;BME280;2764;48.794;8.326;2022-11-21T00:57:44;99150.31;;;6.03;100.00
5484;BME280;2764;48.794;8.326;2022-11-21T00:58:46;99153.00;;;6.00;100.00
5484;BME280;2764;48.794;8.326;2022-11-21T00:59:47;99153.97;;;5.97;100.00
5484;BME280;2764;48.794;8.326;2022-11-21T01:00:49;99154.06;;;5.94;100.00
5484;BME280;2764;48.794;8.326;2022-11-21T01:01:51;99151.53;;;5.93;100.00
5484;BME280;2764;48.794;8.326;2022-11-21T01:02:53;99151.47;;;5.94;100.00
5484;BME280;2764;48.794;8.326;2022-11-21T01:03:54;99153.97;;;5.97;100.00
5484;BME280;2764;48.794;8.326;2022-11-21T01:04:57;99156.50;;;5.99;100.00
5484;BME280;2764;48.794;8.326;2022-11-21T01:06:03;99140.13;;;5.97;100.00
5484;BME280;2764;48.794;8.326;2022-11-21T01:07:05;99145.38;;;5.95;100.00
5484;BME280;2764;48.794;8.326;2022-11-21T01:08:07;99136.75;;;5.95;100.00
5484;BME280;2764;48.794;8.326;2022-11-21T01:09:09;99145.31;;;5.97;100.00
5484;BME280;2764;48.794;8.326;2022-11-21T01:10:10;99149.72;;;5.95;100.00
5484;BME280;2764;48.794;8.326;2022-11-21T01:11:15;99135.88;;;5.96;100.00
5484;BME280;2764;48.794;8.326;2022-11-21T01:12:17;99132.34;;;5.97;100.00
5484;BME280;2764;48.794;8.326;2022-11-21T01:13:18;99134.75;;;6.03;100.00
5484;BME280;2764;48.794;8.326;2022-11-21T01:14:20;99135.69;;;6.00;100.00
5484;BME280;2764;48.794;8.326;2022-11-21T01:15:21;99127.84;;;6.02;100.00
5484;BME280;2764;48.794;8.326;2022-11-21T01:16:25;99135.97;;;5.93;100.00
5484;BME280;2764;48.794;8.326;2022-11-21T01:17:27;99147.56;;;6.07;100.00
5484;BME280;2764;48.794;8.326;2022-11-21T01:18:29;99139.66;;;6.10;100.00
5484;BME280;2764;48.794;8.326;2022-11-21T01:19:30;99132.09;;;6.04;100.00
5484;BME280;2764;48.794;8.326;2022-11-21T01:20:32;99143.19;;;6.08;100.00
5484;BME280;2764;48.794;8.326;2022-11-21T01:21:34;99138.13;;;6.05;100.00
5484;BME280;2764;48.794;8.326;2022-11-21T01:22:35;99118.94;;;6.09;100.00
5484;BME280;2764;48.794;8.326;2022-11-21T01:23:37;99138.84;;;6.08;100.00
5484;BME280;2764;48.794;8.326;2022-11-21T01:24:38;99143.31;;;6.05;100.00
5484;BME280;2764;48.794;8.326;2022-11-21T01:25:40;99126.00;;;6.05;100.00
5484;BME280;2764;48.794;8.326;2022-11-21T01:26:42;99135.56;;;6.03;100.00
5484;BME280;2764;48.794;8.326;2022-11-21T01:27:43;99133.03;;;6.02;100.00
5484;BME280;2764;48.794;8.326;2022-11-21T01:28:45;99138.22;;;6.02;100.00
5484;BME280;2764;48.794;8.326;2022-11-21T01:29:47;99138.22;;;6.02;100.00
5484;BME280;2764;48.794;8.326;2022-11-21T01:30:48;99144.28;;;6.02;100.00
5484;BME280;2764;48.794;8.326;2022-11-21T01:31:50;99136.56;;;6.01;100.00
5484;BME280;2764;48.794;8.326;2022-11-21T01:32:51;99142.63;;;6.00;100.00
5484;BME280;2764;48.794;8.326;2022-11-21T01:33:55;99139.25;;;5.98;100.00
5484;BME280;2764;48.794;8.326;2022-11-21T01:34:57;99143.59;;;5.97;100.00
5484;BME280;2764;48.794;8.326;2022-11-21T01:36:09;99142.72;;;5.97;100.00
5484;BME280;2764;48.794;8.326;2022-11-21T01:37:11;99158.38;;;5.95;100.00
5484;BME280;2764;48.794;8.326;2022-11-21T01:38:13;99152.22;;;5.98;100.00
5484;BME280;2764;48.794;8.326;2022-11-21T01:39:15;99153.97;;;5.97;100.00
5484;BME280;2764;48.794;8.326;2022-11-21T01:40:16;99155.69;;;5.97;100.00
5484;BME280;2764;48.794;8.326;2022-11-21T01:41:21;99154.03;;;5.96;100.00
5484;BME280;2764;48.794;8.326;2022-11-21T01:42:23;99152.31;;;5.95;100.00
5484;BME280;2764;48.794;8.326;2022-11-21T01:43:24;99148.94;;;5.93;100.00
5484;BME280;2764;48.794;8.326;2022-11-21T01:44:46;99162.78;;;5.92;100.00
5484;BME280;2764;48.794;8.326;2022-11-21T01:47:00;99152.31;;;5.95;100.00
5484;BME280;2764;48.794;8.326;2022-11-21T01:48:01;99147.19;;;5.93;100.00
5484;BME280;2764;48.794;8.326;2022-11-21T01:49:21;99147.22;;;5.92;100.00
5484;BME280;2764;48.794;8.326;2022-11-21T01:50:24;99146.44;;;5.90;100.00
5484;BME280;2764;48.794;8.326;2022-11-21T01:52:39;99152.53;;;5.89;100.00
5484;BME280;2764;48.794;8.326;2022-11-21T01:53:43;99138.72;;;5.88;100.00
5484;BME280;2764;48.794;8.326;2022-11-21T01:55:57;99143.84;;;5.90;100.00
5484;BME280;2764;48.794;8.326;2022-11-21T01:57:17;99135.16;;;5.91;100.00
5484;BME280;2764;48.794;8.326;2022-11-21T01:58:20;99145.53;;;5.91;100.00
5484;BME280;2764;48.794;8.326;2022-11-21T02:00:55;99129.88;;;5.94;100.00
5484;BME280;2764;48.794;8.326;2022-11-21T02:01:58;99128.25;;;5.91;100.00
5484;BME280;2764;48.794;8.326;2022-11-21T02:03:07;99136.91;;;5.90;100.00
5484;BME280;2764;48.794;8.326;2022-11-21T02:04:10;99140.41;;;5.89;100.00
5484;BME280;2764;48.794;8.326;2022-11-21T02:05:16;99130.88;;;5.90;100.00
5484;BME280;2764;48.794;8.326;2022-11-21T02:06:19;99130.94;;;5.88;100.00
5484;BME280;2764;48.794;8.326;2022-11-21T02:07:22;99137.81;;;5.89;100.00
5484;BME280;2764;48.794;8.326;2022-11-21T02:08:25;99130.06;;;5.88;100.00
5484;BME280;2764;48.794;8.326;2022-11-21T02:09:29;99138.91;;;5.82;100.00
5484;BME280;2764;48.794;8.326;2022-11-21T02:10:33;99128.47;;;5.84;100.00
5484;BME280;2764;48.794;8.326;2022-11-21T02:11:40;99132.00;;;5.81;100.00
5484;BME280;2764;48.794;8.326;2022-11-21T02:12:49;99127.06;;;5.74;100.00
5484;BME280;2764;48.794;8.326;2022-11-21T02:13:51;99128.56;;;5.81;100.00
5484;BME280;2764;48.794;8.326;2022-11-21T02:14:53;99125.16;;;5.79;100.00
5484;BME280;2764;48.794;8.326;2022-11-21T02:15:56;99124.38;;;5.77;100.00
5484;BME280;2764;48.794;8.326;2022-11-21T02:17:03;99129.63;;;5.75;100.00
5484;BME280;2764;48.794;8.326;2022-11-21T02:18:08;99127.06;;;5.74;100.00
5484;BME280;2764;48.794;8.326;2022-11-21T02:19:21;99116.69;;;5.74;100.00
5484;BME280;2764;48.794;8.326;2022-11-21T02:20:27;99118.31;;;5.78;100.00
5484;BME280;2764;48.794;8.326;2022-11-21T02:21:47;99119.28;;;5.74;100.00
5484;BME280;2764;48.794;8.326;2022-11-21T02:23:00;99124.53;;;5.72;100.00
5484;BME280;2764;48.794;8.326;2022-11-21T02:24:16;99117.28;;;5.82;100.00
5484;BME280;2764;48.794;8.326;2022-11-21T02:25:26;99132.06;;;5.80;100.00
5484;BME280;2764;48.794;8.326;2022-11-21T02:26:29;99132.06;;;5.80;100.00
5484;BME280;2764;48.794;8.326;2022-11-21T02:27:31;99114.63;;;5.83;100.00
5484;BME280;2764;48.794;8.326;2022-11-21T02:28:33;99111.34;;;5.78;100.00
5484;BME280;2764;48.794;8.326;2022-11-21T02:29:34;99123.50;;;5.78;100.00
5484;BME280;2764;48.794;8.326;2022-11-21T02:30:38;99124.38;;;5.77;100.00
5484;BME280;2764;48.794;8.326;2022-11-21T02:31:40;99123.59;;;5.75;100.00
5484;BME280;2764;48.794;8.326;2022-11-21T02:32:44;99117.53;;;5.74;100.00
5484;BME280;2764;48.794;8.326;2022-11-21T02:33:49;99103.78;;;5.72;100.00
5484;BME280;2764;48.794;8.326;2022-11-21T02:34:50;99114.09;;;5.74;100.00
5484;BME280;2764;48.794;8.326;2022-11-21T02:35:56;99109.84;;;5.71;100.00
5484;BME280;2764;48.794;8.326;2022-11-21T02:36:58;99113.13;;;5.78;100.00
5484;BME280;2764;48.794;8.326;2022-11-21T02:38:19;99100.94;;;5.80;100.00
5484;BME280;2764;48.794;8.326;2022-11-21T02:39:29;99112.94;;;5.82;100.00
5484;BME280;2764;48.794;8.326;2022-11-21T02:40:39;99102.59;;;5.81;100.00
5484;BME280;2764;48.794;8.326;2022-11-21T02:41:56;99124.03;;;5.87;100.00
5484;BME280;2764;48.794;8.326;2022-11-21T02:43:22;99101.59;;;5.86;100.00
5484;BME280;2764;48.794;8.326;2022-11-21T02:44:33;99099.19;;;5.80;100.00
5484;BME280;2764;48.794;8.326;2022-11-21T02:45:39;99102.50;;;5.84;100.00
5484;BME280;2764;48.794;8.326;2022-11-21T02:46:46;99094.66;;;5.87;100.00
5484;BME280;2764;48.794;8.326;2022-11-21T02:47:52;99092.06;;;5.87;100.00
5484;BME280;2764;48.794;8.326;2022-11-21T02:49:03;99098.91;;;5.89;100.00
5484;BME280;2764;48.794;8.326;2022-11-21T02:50:15;99102.31;;;5.90;100.00
5484;BME280;2764;48.794;8.326;2022-11-21T02:51:19;99092.84;;;5.89;100.00
5484;BME280;2764;48.794;8.326;2022-11-21T02:52:21;99090.34;;;5.86;100.00
5484;BME280;2764;48.794;8.326;2022-11-21T02:53:23;99099.78;;;5.88;100.00
5484;BME280;2764;48.794;8.326;2022-11-21T02:54:24;99089.41;;;5.88;100.00
5484;BME280;2764;48.794;8.326;2022-11-21T02:55:27;99095.44;;;5.89;100.00
5484;BME280;2764;48.794;8.326;2022-11-21T02:56:28;99097.25;;;5.87;100.00
5484;BME280;2764;48.794;8.326;2022-11-21T02:57:31;99087.81;;;5.83;100.00
5484;BME280;2764;48.794;8.326;2022-11-21T02:58:32;99099.06;;;5.85;100.00
5484;BME280;2764;48.794;8.326;2022-11-21T02:59:34;99089.53;;;5.84;100.00
5484;BME280;2764;48.794;8.326;2022-11-21T03:00:38;99083.50;;;5.83;100.00
5484;BME280;2764;48.794;8.326;2022-11-21T03:01:40;99092.09;;;5.85;100.00
5484;BME280;2764;48.794;8.326;2022-11-21T03:02:42;99084.22;;;5.88;100.00
5484;BME280;2764;48.794;8.326;2022-11-21T03:03:44;99086.75;;;5.90;100.00
5484;BME280;2764;48.794;8.326;2022-11-21T03:04:45;99085.88;;;5.91;100.00
5484;BME280;2764;48.794;8.326;2022-11-21T03:05:47;99080.66;;;5.91;100.00
5484;BME280;2764;48.794;8.326;2022-11-21T03:06:49;99073.69;;;5.93;100.00
5484;BME280;2764;48.794;8.326;2022-11-21T03:07:50;99083.09;;;5.95;100.00
5484;BME280;2764;48.794;8.326;2022-11-21T03:08:52;99073.34;;;6.02;100.00
5484;BME280;2764;48.794;8.326;2022-11-21T03:09:54;99077.69;;;6.01;100.00
5484;BME280;2764;48.794;8.326;2022-11-21T03:10:55;99074.31;;;5.99;100.00
5484;BME280;2764;48.794;8.326;2022-11-21T03:11:57;99074.25;;;6.01;100.00
5484;BME280;2764;48.794;8.326;2022-11-21T03:12:59;99089.72;;;6.04;100.00
5484;BME280;2764;48.794;8.326;2022-11-21T03:14:03;99069.88;;;6.03;100.00
5484;BME280;2764;48.794;8.326;2022-11-21T03:15:07;99076.78;;;6.02;100.00
5484;BME280;2764;48.794;8.326;2022-11-21T03:16:09;99071.38;;;6.08;100.00
5484;BME280;2764;48.794;8.326;2022-11-21T03:17:11;99076.56;;;6.08;100.00
5484;BME280;2764;48.794;8.326;2022-11-21T03:18:13;99068.75;;;6.10;100.00
5484;BME280;2764;48.794;8.326;2022-11-21T03:19:14;99063.41;;;6.13;100.00
5484;BME280;2764;48.794;8.326;2022-11-21T03:20:16;99069.22;;;6.19;100.00
5484;BME280;2764;48.794;8.326;2022-11-21T03:21:18;99064.16;;;6.16;100.00
5484;BME280;2764;48.794;8.326;2022-11-21T03:22:19;99070.16;;;6.18;100.00
5484;BME280;2764;48.794;8.326;2022-11-21T03:23:21;99068.50;;;6.16;100.00
5484;BME280;2764;48.794;8.326;2022-11-21T03:24:22;99070.88;;;6.22;100.00
5484;BME280;2764;48.794;8.326;2022-11-21T03:25:24;99062.47;;;6.15;100.00
5484;BME280;2764;48.794;8.326;2022-11-21T03:26:27;99073.59;;;6.19;100.00
5484;BME280;2764;48.794;8.326;2022-11-21T03:27:28;99064.03;;;6.19;100.00
5484;BME280;2764;48.794;8.326;2022-11-21T03:28:30;99060.66;;;6.17;100.00
5484;BME280;2764;48.794;8.326;2022-11-21T03:29:31;99069.28;;;6.18;100.00
5484;BME280;2764;48.794;8.326;2022-11-21T03:30:33;99068.44;;;6.17;100.00
5484;BME280;2764;48.794;8.326;2022-11-21T03:31:35;99074.41;;;6.19;100.00
5484;BME280;2764;48.794;8.326;2022-11-21T03:32:36;99073.59;;;6.19;100.00
5484;BME280;2764;48.794;8.326;2022-11-21T03:33:38;99075.28;;;6.20;100.00
5484;BME280;2764;48.794;8.326;2022-11-21T03:34:40;99075.16;;;6.23;100.00
5484;BME280;2764;48.794;8.326;2022-11-21T03:35:41;99068.09;;;6.26;100.00
5484;BME280;2764;48.794;8.326;2022-11-21T03:36:43;99079.41;;;6.25;100.00
5484;BME280;2764;48.794;8.326;2022-11-21T03:37:47;99070.53;;;6.31;100.00
5484;BME280;2764;48.794;8.326;2022-11-21T03:38:48;99063.47;;;6.34;100.00
5484;BME280;2764;48.794;8.326;2022-11-21T03:39:50;99074.81;;;6.32;100.00
5484;BME280;2764;48.794;8.326;2022-11-21T03:40:52;99080.91;;;6.31;100.00
5484;BME280;2764;48.794;8.326;2022-11-21T03:41:53;99080.03;;;6.32;100.00
5484;BME280;2764;48.794;8.326;2022-11-21T03:42:55;99085.22;;;6.32;100.00
5484;BME280;2764;48.794;8.326;2022-11-21T03:45:04;99073.88;;;6.34;100.00
5484;BME280;2764;48.794;8.326;2022-11-21T03:46:06;99086.78;;;6.36;100.00
5484;BME280;2764;48.794;8.326;2022-11-21T03:47:08;99073.94;;;6.33;100.00
5484;BME280;2764;48.794;8.326;2022-11-21T03:48:09;99075.69;;;6.32;100.00
5484;BME280;2764;48.794;8.326;2022-11-21T03:49:12;99076.56;;;6.31;100.00
5484;BME280;2764;48.794;8.326;2022-11-21T03:50:14;99075.72;;;6.31;100.00
5484;BME280;2764;48.794;8.326;2022-11-21T03:51:19;99083.50;;;6.31;100.00
5484;BME280;2764;48.794;8.326;2022-11-21T03:52:21;99073.13;;;6.31;100.00
5484;BME280;2764;48.794;8.326;2022-11-21T03:53:23;99084.50;;;6.28;100.00
5484;BME280;2764;48.794;8.326;2022-11-21T03:54:24;99073.25;;;6.28;100.00
5484;BME280;2764;48.794;8.326;2022-11-21T03:55:27;99083.56;;;6.29;100.00
5484;BME280;2764;48.794;8.326;2022-11-21T03:56:29;99077.50;;;6.30;100.00
5484;BME280;2764;48.794;8.326;2022-11-21T03:57:31;99075.78;;;6.29;100.00
5484;BME280;2764;48.794;8.326;2022-11-21T03:58:32;99075.78;;;6.29;100.00
5484;BME280;2764;48.794;8.326;2022-11-21T03:59:34;99088.69;;;6.31;100.00
5484;BME280;2764;48.794;8.326;2022-11-21T04:00:36;99076.72;;;6.28;100.00
5484;BME280;2764;48.794;8.326;2022-11-21T04:01:37;99082.63;;;6.32;100.00
5484;BME280;2764;48.794;8.326;2022-11-21T04:02:39;99092.13;;;6.33;100.00
5484;BME280;2764;48.794;8.326;2022-11-21T04:03:42;99081.75;;;6.31;100.00
5484;BME280;2764;48.794;8.326;2022-11-21T04:04:43;99081.91;;;6.28;100.00
5484;BME280;2764;48.794;8.326;2022-11-21T04:05:45;99085.31;;;6.29;100.00
5484;BME280;2764;48.794;8.326;2022-11-21T04:06:47;99088.78;;;6.29;100.00
5484;BME280;2764;48.794;8.326;2022-11-21T04:07:48;99087.13;;;6.27;100.00
5484;BME280;2764;48.794;8.326;2022-11-21T04:08:50;99082.00;;;6.25;100.00
5484;BME280;2764;48.794;8.326;2022-11-21T04:09:52;99095.69;;;6.29;100.00
5484;BME280;2764;48.794;8.326;2022-11-21T04:10:54;99088.78;;;6.29;100.00
5484;BME280;2764;48.794;8.326;2022-11-21T04:11:55;99090.50;;;6.29;100.00
5484;BME280;2764;48.794;8.326;2022-11-21T04:12:57;99088.94;;;6.25;100.00
5484;BME280;2764;48.794;8.326;2022-11-21T04:13:59;99086.34;;;6.25;100.00
5484;BME280;2764;48.794;8.326;2022-11-21T04:15:00;99095.88;;;6.24;100.00
5484;BME280;2764;48.794;8.326;2022-11-21T04:16:02;99101.81;;;6.28;100.00
5484;BME280;2764;48.794;8.326;2022-11-21T04:17:04;99101.03;;;6.26;100.00
5484;BME280;2764;48.794;8.326;2022-11-21T04:18:05;99090.75;;;6.23;100.00
5484;BME280;2764;48.794;8.326;2022-11-21T04:19:07;99093.41;;;6.21;100.00
5484;BME280;2764;48.794;8.326;2022-11-21T04:20:09;99085.03;;;6.13;100.00
5484;BME280;2764;48.794;8.326;2022-11-21T04:21:11;99092.41;;;6.24;100.00
5484;BME280;2764;48.794;8.326;2022-11-21T04:22:13;99097.59;;;6.25;100.00
5484;BME280;2764;48.794;8.326;2022-11-21T04:23:14;99094.03;;;6.28;100.00
5484;BME280;2764;48.794;8.326;2022-11-21T04:24:16;99088.84;;;6.28;100.00
5484;BME280;2764;48.794;8.326;2022-11-21T04:25:18;99089.72;;;6.27;100.00
5484;BME280;2764;48.794;8.326;2022-11-21T04:26:20;99087.13;;;6.27;100.00
5484;BME280;2764;48.794;8.326;2022-11-21T04:27:21;99086.28;;;6.26;100.00
5484;BME280;2764;48.794;8.326;2022-11-21T04:28:23;99092.41;;;6.24;100.00
5484;BME280;2764;48.794;8.326;2022-11-21T04:29:25;99098.25;;;6.30;100.00
5484;BME280;2764;48.794;8.326;2022-11-21T04:30:27;99085.94;;;6.35;100.00
5484;BME280;2764;48.794;8.326;2022-11-21T04:31:29;99083.41;;;6.34;100.00
5484;BME280;2764;48.794;8.326;2022-11-21T04:32:31;99072.22;;;6.32;100.00
5484;BME280;2764;48.794;8.326;2022-11-21T04:33:32;99076.63;;;6.30;100.00
5484;BME280;2764;48.794;8.326;2022-11-21T04:34:34;99078.44;;;6.28;100.00
5484;BME280;2764;48.794;8.326;2022-11-21T04:35:36;99068.94;;;6.27;100.00
5484;BME280;2764;48.794;8.326;2022-11-21T04:36:38;99068.91;;;6.28;100.00
5484;BME280;2764;48.794;8.326;2022-11-21T04:37:39;99068.91;;;6.28;100.00
5484;BME280;2764;48.794;8.326;2022-11-21T04:38:41;99074.81;;;6.32;100.00
5484;BME280;2764;48.794;8.326;2022-11-21T04:39:43;99050.25;;;6.17;100.00
5484;BME280;2764;48.794;8.326;2022-11-21T04:40:44;99075.78;;;6.29;100.00
5484;BME280;2764;48.794;8.326;2022-11-21T04:41:46;99075.78;;;6.29;100.00
5484;BME280;2764;48.794;8.326;2022-11-21T04:42:47;99071.56;;;6.27;100.00
5484;BME280;2764;48.794;8.326;2022-11-21T04:43:49;99066.81;;;6.15;100.00
5484;BME280;2764;48.794;8.326;2022-11-21T04:44:51;99075.97;;;6.25;100.00
5484;BME280;2764;48.794;8.326;2022-11-21T04:45:53;99085.44;;;6.26;100.00
5484;BME280;2764;48.794;8.326;2022-11-21T04:46:54;99075.97;;;6.25;100.00
5484;BME280;2764;48.794;8.326;2022-11-21T04:47:56;99088.78;;;6.29;100.00
5484;BME280;2764;48.794;8.326;2022-11-21T04:48:58;99081.94;;;6.27;100.00
5484;BME280;2764;48.794;8.326;2022-11-21T04:49:59;99087.22;;;6.24;100.00
5484;BME280;2764;48.794;8.326;2022-11-21T04:51:01;99082.84;;;6.26;100.00
5484;BME280;2764;48.794;8.326;2022-11-21T04:52:03;99083.56;;;6.29;100.00
5484;BME280;2764;48.794;8.326;2022-11-21T04:53:04;99078.47;;;6.26;100.00
5484;BME280;2764;48.794;8.326;2022-11-21T04:54:06;99071.66;;;6.24;100.00
5484;BME280;2764;48.794;8.326;2022-11-21T04:55:08;99070.03;;;6.21;100.00
5484;BME280;2764;48.794;8.326;2022-11-21T04:56:10;99079.41;;;6.25;100.00
5484;BME280;2764;48.794;8.326;2022-11-21T04:57:11;99069.97;;;6.23;100.00
5484;BME280;2764;48.794;8.326;2022-11-21T04:58:13;99072.63;;;6.21;100.00
5484;BME280;2764;48.794;8.326;2022-11-21T04:59:15;99077.69;;;6.24;100.00
5484;BME280;2764;48.794;8.326;2022-11-21T05:00:17;99071.81;;;6.19;100.00
5484;BME280;2764;48.794;8.326;2022-11-21T05:01:24;99068.28;;;6.22;100.00
5484;BME280;2764;48.794;8.326;2022-11-21T05:02:26;99068.22;;;6.23;100.00
5484;BME280;2764;48.794;8.326;2022-11-21T05:03:28;99070.84;;;6.23;100.00
5484;BME280;2764;48.794;8.326;2022-11-21T05:04:29;99070.75;;;6.25;100.00
5484;BME280;2764;48.794;8.326;2022-11-21T05:05:31;99076.72;;;6.28;100.00
5484;BME280;2764;48.794;8.326;2022-11-21T05:06:33;99080.13;;;6.29;100.00
5484;BME280;2764;48.794;8.326;2022-11-21T05:07:35;99073.97;;;6.31;100.00
5484;BME280;2764;48.794;8.326;2022-11-21T05:08:37;99072.16;;;6.33;100.00
5484;BME280;2764;48.794;8.326;2022-11-21T05:09:38;99086.06;;;6.32;100.00
5484;BME280;2764;48.794;8.326;2022-11-21T05:10:42;99083.31;;;6.37;100.00
5484;BME280;2764;48.794;8.326;2022-11-21T05:12:03;99080.75;;;6.35;100.00
5484;BME280;2764;48.794;8.326;2022-11-21T05:13:23;99086.69;;;6.39;100.00
5484;BME280;2764;48.794;8.326;2022-11-21T05:14:25;99084.94;;;6.40;100.00
5484;BME280;2764;48.794;8.326;2022-11-21T05:15:27;99084.16;;;6.38;100.00
5484;BME280;2764;48.794;8.326;2022-11-21T05:16:31;99079.78;;;6.38;100.00
5484;BME280;2764;48.794;8.326;2022-11-21T05:17:33;99085.75;;;6.40;100.00
5484;BME280;2764;48.794;8.326;2022-11-21T05:18:34;99084.03;;;6.41;100.00
5484;BME280;2764;48.794;8.326;2022-11-21T05:19:36;99086.69;;;6.39;100.00
5484;BME280;2764;48.794;8.326;2022-11-21T05:20:38;99086.78;;;6.36;100.00
5484;BME280;2764;48.794;8.326;2022-11-21T05:21:39;99087.72;;;6.35;100.00
5484;BME280;2764;48.794;8.326;2022-11-21T05:22:41;99085.22;;;6.32;100.00
5484;BME280;2764;48.794;8.326;2022-11-21T05:23:43;99084.03;;;6.41;100.00
5484;BME280;2764;48.794;8.326;2022-11-21T05:24:44;99068.34;;;6.44;100.00
5484;BME280;2764;48.794;8.326;2022-11-21T05:25:46;99083.91;;;6.44;100.00
5484;BME280;2764;48.794;8.326;2022-11-21T05:26:47;99078.47;;;6.50;100.00
5484;BME280;2764;48.794;8.326;2022-11-21T05:27:49;99082.94;;;6.46;100.00
5484;BME280;2764;48.794;8.326;2022-11-21T05:28:51;99086.56;;;6.42;100.00
5484;BME280;2764;48.794;8.326;2022-11-21T05:29:52;99084.19;;;6.36;100.00
5484;BME280;2764;48.794;8.326;2022-11-21T05:30:55;99090.91;;;6.42;100.00
5484;BME280;2764;48.794;8.326;2022-11-21T05:31:57;99078.81;;;6.41;100.00
5484;BME280;2764;48.794;8.326;2022-11-21T05:32:59;99091.03;;;6.38;100.00
5484;BME280;2764;48.794;8.326;2022-11-21T05:34:00;99079.00;;;6.36;100.00
5484;BME280;2764;48.794;8.326;2022-11-21T05:35:02;99080.91;;;6.31;100.00
5484;BME280;2764;48.794;8.326;2022-11-21T05:36:04;99091.44;;;6.28;100.00
5484;BME280;2764;48.794;8.326;2022-11-21T05:37:05;99094.88;;;6.28;100.00
5484;BME280;2764;48.794;8.326;2022-11-21T05:38:07;99093.25;;;6.26;100.00
5484;BME280;2764;48.794;8.326;2022-11-21T05:39:09;99096.63;;;6.28;100.00
5484;BME280;2764;48.794;8.326;2022-11-21T05:40:10;99085.31;;;6.29;100.00
5484;BME280;2764;48.794;8.326;2022-11-21T05:41:12;99089.63;;;6.30;100.00
5484;BME280;2764;48.794;8.326;2022-11-21T05:42:14;99098.31;;;6.29;100.00
5484;BME280;2764;48.794;8.326;2022-11-21T05:43:15;99097.41;;;6.30;100.00
5484;BME280;2764;48.794;8.326;2022-11-21T05:44:35;99105.81;;;6.36;100.00
5484;BME280;2764;48.794;8.326;2022-11-21T05:45:37;99106.53;;;6.40;100.00
5484;BME280;2764;48.794;8.326;2022-11-21T05:46:39;99084.88;;;6.41;100.00
5484;BME280;2764;48.794;8.326;2022-11-21T05:47:41;99096.91;;;6.44;100.00
5484;BME280;2764;48.794;8.326;2022-11-21T05:48:42;99099.50;;;6.44;100.00
5484;BME280;2764;48.794;8.326;2022-11-21T05:49:44;99106.41;;;6.45;100.00